createdAt,value
2019-02-16T00:01:29.209Z,1.70
2019-02-16T00:11:30.647Z,1.70
2019-02-16T00:21:32.188Z,1.60
2019-02-16T00:31:34.026Z,1.60
2019-02-16T00:41:35.345Z,1.70
2019-02-16T00:51:36.843Z,1.60
2019-02-16T01:01:39.272Z,1.50
2019-02-16T01:11:40.660Z,1.20
2019-02-16T01:21:42.096Z,1.20
2019-02-16T01:31:44.041Z,1.00
2019-02-16T01:41:47.480Z,0.90
2019-02-16T01:51:48.753Z,0.90
2019-02-16T02:01:51.241Z,0.90
2019-02-16T02:11:52.656Z,0.80
2019-02-16T02:21:54.199Z,0.80
2019-02-16T02:31:55.669Z,0.80
2019-02-16T02:41:57.093Z,0.70
2019-02-16T02:51:58.593Z,0.80
2019-02-16T03:02:01.092Z,0.60
2019-02-16T03:12:02.613Z,0.60
2019-02-16T03:22:04.151Z,0.60
2019-02-16T03:32:09.367Z,0.50
2019-02-16T03:42:10.772Z,0.50
2019-02-16T03:52:14.118Z,0.40
2019-02-16T04:02:16.540Z,0.30
2019-02-16T04:12:17.953Z,0.40
2019-02-16T04:22:24.673Z,0.50
2019-02-16T04:32:23.020Z,0.50
2019-02-16T04:42:24.428Z,0.50
2019-02-16T04:52:34.434Z,0.40
2019-02-16T05:02:30.856Z,0.40
2019-02-16T05:12:32.272Z,0.40
2019-02-16T05:22:33.804Z,0.40
2019-02-16T05:32:35.285Z,0.40
2019-02-16T05:42:36.697Z,0.30
2019-02-16T05:52:38.143Z,0.20
2019-02-16T06:02:40.516Z,0.30
2019-02-16T06:12:41.832Z,0.40
2019-02-16T06:22:43.353Z,0.60
2019-02-16T06:32:44.672Z,0.90
2019-02-16T06:42:46.073Z,1.60
2019-02-16T06:52:47.561Z,3.70
2019-02-16T07:02:50.033Z,5.80
2019-02-16T07:12:51.437Z,8.00
2019-02-16T07:22:52.937Z,9.50
2019-02-16T07:32:54.352Z,10.80
2019-02-16T07:42:56.465Z,13.10
2019-02-16T07:53:08.766Z,16.30
2019-02-16T08:03:18.009Z,18.40
2019-02-16T08:13:33.325Z,19.20
2019-02-16T08:23:53.633Z,22.80
2019-02-16T08:33:56.856Z,23.60
2019-02-16T08:44:05.957Z,25.60
2019-02-16T08:54:26.185Z,27.10
2019-02-16T09:04:31.752Z,27.10
2019-02-16T09:14:47.132Z,28.00
2019-02-16T09:24:50.556Z,28.00
2019-02-16T09:34:53.803Z,27.40
2019-02-16T09:44:59.621Z,27.50
2019-02-16T09:55:05.811Z,26.40
2019-02-16T10:05:13.548Z,26.80
2019-02-16T10:15:16.928Z,27.60
2019-02-16T10:25:32.464Z,26.30
2019-02-16T10:35:54.025Z,26.20
2019-02-16T10:46:06.656Z,23.90
2019-02-16T10:56:25.301Z,23.20
2019-02-16T11:06:36.333Z,21.00
2019-02-16T11:16:48.755Z,19.40
2019-02-16T11:27:04.465Z,17.90
2019-02-16T11:37:19.952Z,16.70
2019-02-16T11:47:39.744Z,16.20
2019-02-16T11:57:55.477Z,16.30
2019-02-16T12:08:07.419Z,16.60
2019-02-16T12:18:16.781Z,16.10
2019-02-16T12:28:38.849Z,16.10
2019-02-16T12:38:42.192Z,16.10
2019-02-16T12:48:57.778Z,15.50
2019-02-16T12:59:01.161Z,15.40
2019-02-16T13:09:19.640Z,15.20
2019-02-16T13:19:29.037Z,15.10
2019-02-16T13:29:32.436Z,15.40
2019-02-16T13:39:38.513Z,15.40
2019-02-16T13:49:41.808Z,15.20
2019-02-16T13:59:45.138Z,14.80
2019-02-16T14:10:05.310Z,14.60
2019-02-16T14:20:07.199Z,14.40
2019-02-16T14:30:11.204Z,14.40
2019-02-16T14:40:12.638Z,14.10
2019-02-16T14:50:14.041Z,14.00
2019-02-16T15:00:15.535Z,13.80
2019-02-16T15:10:18.597Z,13.70
2019-02-16T15:20:20.065Z,13.40
2019-02-16T15:30:21.613Z,13.10
2019-02-16T15:40:23.097Z,12.70
2019-02-16T15:50:24.524Z,12.30
2019-02-16T16:00:27.205Z,11.80
2019-02-16T16:10:35.040Z,11.20
2019-02-16T16:20:44.465Z,10.80
2019-02-16T16:30:48.045Z,10.50
2019-02-16T16:40:51.666Z,10.20
2019-02-16T16:51:01.064Z,9.60
2019-02-16T17:01:05.164Z,9.00
2019-02-16T17:11:11.356Z,8.30
2019-02-16T17:21:15.724Z,8.20
2019-02-16T17:31:19.030Z,8.10
2019-02-16T17:41:28.565Z,7.80
2019-02-16T17:51:34.504Z,7.20
2019-02-16T18:01:56.100Z,6.80
2019-02-16T18:12:03.238Z,6.30
2019-02-16T18:22:12.437Z,5.80
2019-02-16T18:32:30.800Z,5.60
2019-02-16T18:42:33.068Z,5.30
2019-02-16T18:52:45.392Z,5.10
2019-02-16T19:02:54.697Z,4.90
2019-02-16T19:12:58.989Z,4.80
2019-02-16T19:23:02.313Z,4.60
2019-02-16T19:33:05.749Z,4.50
2019-02-16T19:43:09.136Z,4.80
2019-02-16T19:53:32.323Z,4.80
2019-02-16T20:03:35.624Z,5.20
2019-02-16T20:13:39.105Z,5.60
2019-02-16T20:23:42.434Z,5.70
2019-02-16T20:33:48.710Z,5.70
2019-02-16T20:43:53.328Z,5.70
2019-02-16T20:54:02.447Z,5.70
2019-02-16T21:04:05.795Z,5.50
2019-02-16T21:14:12.849Z,5.30
2019-02-16T21:24:18.744Z,5.10
2019-02-16T21:34:29.779Z,5.00
2019-02-16T21:44:33.515Z,4.80
2019-02-16T21:54:36.877Z,4.40
2019-02-16T22:04:52.161Z,4.00
2019-02-16T22:14:54.655Z,3.70
2019-02-16T22:24:56.077Z,3.50
2019-02-16T22:34:57.606Z,3.40
2019-02-16T22:44:59.108Z,3.30
2019-02-16T22:55:00.509Z,3.10
2019-02-16T23:05:02.201Z,2.80
2019-02-16T23:15:08.535Z,2.80
2019-02-16T23:25:10.153Z,2.40
2019-02-16T23:35:11.753Z,2.30
2019-02-16T23:45:13.445Z,2.30
2019-02-16T23:55:14.858Z,2.20
